RJDB(METAR)
12/04 19:00
METAR RJDB 041000Z AUTO 02013KT 9999 FEW034 OVC150 12/05 Q1024 RMK
A3026=
戻る
トップページへ戻る
IMOC Co,.Ltd.